createdAt,value
2023-04-18T00:01:57.878Z,9.60
2023-04-18T00:04:26.769Z,9.60
2023-04-18T00:06:55.835Z,9.50
2023-04-18T00:09:25.937Z,9.50
2023-04-18T00:11:54.741Z,9.50
2023-04-18T00:14:23.347Z,9.40
2023-04-18T00:16:54.204Z,9.50
2023-04-18T00:19:22.692Z,9.50
2023-04-18T00:21:54.045Z,9.40
2023-04-18T00:24:22.472Z,9.50
2023-04-18T00:26:50.722Z,9.50
2023-04-18T00:29:18.893Z,9.40
2023-04-18T00:31:47.193Z,9.40
2023-04-18T00:34:16.945Z,9.10
2023-04-18T00:36:46.994Z,9.20
2023-04-18T00:39:15.222Z,9.30
2023-04-18T00:41:44.959Z,9.40
2023-04-18T00:44:13.378Z,9.40
2023-04-18T00:46:41.916Z,9.40
2023-04-18T00:49:10.330Z,9.40
2023-04-18T00:51:41.110Z,9.30
2023-04-18T00:54:11.803Z,9.20
2023-04-18T00:56:41.008Z,9.30
2023-04-18T00:59:11.220Z,9.40
2023-04-18T01:01:41.739Z,9.40
2023-04-18T01:04:10.448Z,9.20
2023-04-18T01:06:40.998Z,9.00
2023-04-18T01:09:09.411Z,9.00
2023-04-18T01:11:37.841Z,9.00
2023-04-18T01:14:07.632Z,9.10
2023-04-18T01:16:39.006Z,9.10
2023-04-18T01:19:07.390Z,9.20
2023-04-18T01:21:37.316Z,9.20
2023-04-18T01:24:11.869Z,9.30
2023-04-18T01:26:44.906Z,9.30
2023-04-18T01:29:13.270Z,9.30
2023-04-18T01:31:42.323Z,9.30
2023-04-18T01:34:10.863Z,9.30
2023-04-18T01:36:41.474Z,9.10
2023-04-18T01:39:14.761Z,9.10
2023-04-18T01:41:43.485Z,8.90
2023-04-18T01:44:12.109Z,8.70
2023-04-18T01:46:41.219Z,8.50
2023-04-18T01:49:10.293Z,8.50
2023-04-18T01:51:39.323Z,8.20
2023-04-18T01:54:07.678Z,8.10
2023-04-18T01:56:37.282Z,8.30
2023-04-18T01:59:05.717Z,8.40
2023-04-18T02:01:34.033Z,8.50
2023-04-18T02:04:02.362Z,8.60
2023-04-18T02:06:30.886Z,8.50
2023-04-18T02:09:01.501Z,8.50
2023-04-18T02:11:29.856Z,8.20
2023-04-18T02:14:00.164Z,8.20
2023-04-18T02:16:28.452Z,8.30
2023-04-18T02:18:56.775Z,8.50
2023-04-18T02:21:25.214Z,8.60
2023-04-18T02:23:53.742Z,8.70
2023-04-18T02:26:23.884Z,8.80
2023-04-18T02:28:52.341Z,8.60
2023-04-18T02:31:22.213Z,8.60
2023-04-18T02:33:50.411Z,8.70
2023-04-18T02:36:19.144Z,8.60
2023-04-18T02:38:47.281Z,8.60
2023-04-18T02:41:19.493Z,8.60
2023-04-18T02:43:48.717Z,8.60
2023-04-18T02:46:18.853Z,8.40
2023-04-18T02:48:50.790Z,8.10
2023-04-18T02:51:24.797Z,7.90
2023-04-18T02:53:55.191Z,7.90
2023-04-18T02:56:24.326Z,8.10
2023-04-18T02:59:17.752Z,8.20
2023-04-18T03:02:03.702Z,8.40
2023-04-18T03:04:34.395Z,8.40
2023-04-18T03:07:05.752Z,8.40
2023-04-18T03:09:37.586Z,8.50
2023-04-18T03:12:15.282Z,8.40
2023-04-18T03:14:44.551Z,8.40
2023-04-18T03:17:15.044Z,8.40
2023-04-18T03:19:49.916Z,8.40
2023-04-18T03:22:21.281Z,8.40
2023-04-18T03:24:56.918Z,8.50
2023-04-18T03:27:40.132Z,8.40
2023-04-18T03:30:10.185Z,8.40
2023-04-18T03:32:42.382Z,8.40
2023-04-18T03:35:12.635Z,8.40
2023-04-18T03:37:41.278Z,8.50
2023-04-18T03:40:12.212Z,8.50
2023-04-18T03:42:41.535Z,8.50
2023-04-18T03:45:12.508Z,8.50
2023-04-18T03:47:41.209Z,8.40
2023-04-18T03:50:10.343Z,8.40
2023-04-18T03:52:41.291Z,8.40
2023-04-18T03:55:11.369Z,8.30
2023-04-18T03:57:41.249Z,8.40
2023-04-18T04:00:13.833Z,8.40
2023-04-18T04:02:44.987Z,8.40
2023-04-18T04:05:20.216Z,8.40
2023-04-18T04:07:50.438Z,8.40
2023-04-18T04:10:19.916Z,8.40
2023-04-18T04:12:49.544Z,8.40
2023-04-18T04:15:18.153Z,8.30
2023-04-18T04:17:52.768Z,8.20
2023-04-18T04:20:24.841Z,8.20
2023-04-18T04:23:02.211Z,8.30
2023-04-18T04:25:34.207Z,8.30
2023-04-18T04:28:08.154Z,8.40
2023-04-18T04:30:46.196Z,8.40
2023-04-18T04:33:14.656Z,8.20
2023-04-18T04:35:43.077Z,8.30
2023-04-18T04:38:13.020Z,8.40
2023-04-18T04:40:46.855Z,8.40
2023-04-18T04:43:15.780Z,8.10
2023-04-18T04:45:46.115Z,8.20
2023-04-18T04:48:14.349Z,8.20
2023-04-18T04:50:43.756Z,7.90
2023-04-18T04:53:14.560Z,8.10
2023-04-18T04:55:42.966Z,8.10
2023-04-18T04:58:11.365Z,8.20
2023-04-18T05:00:58.300Z,8.20
2023-04-18T05:03:26.738Z,8.20
2023-04-18T05:05:55.353Z,8.30
2023-04-18T05:08:25.025Z,8.20
2023-04-18T05:10:53.261Z,8.20
2023-04-18T05:13:21.343Z,8.20
2023-04-18T05:15:49.518Z,8.10
2023-04-18T05:18:17.716Z,8.20
2023-04-18T05:20:45.878Z,8.20
2023-04-18T05:23:14.159Z,8.20
2023-04-18T05:25:44.266Z,8.20
2023-04-18T05:28:12.494Z,8.20
2023-04-18T05:30:41.649Z,8.20
2023-04-18T05:33:10.040Z,8.30
2023-04-18T05:35:38.369Z,8.30
2023-04-18T05:38:06.520Z,8.30
2023-04-18T05:40:35.031Z,8.30
2023-04-18T05:43:04.602Z,8.20
2023-04-18T05:45:32.789Z,8.10
2023-04-18T05:48:01.038Z,7.90
2023-04-18T05:50:29.299Z,8.00
2023-04-18T05:52:59.171Z,8.10
2023-04-18T05:55:27.580Z,8.00
2023-04-18T05:57:55.779Z,8.10
2023-04-18T06:00:25.837Z,7.90
2023-04-18T06:02:54.247Z,8.10
2023-04-18T06:05:22.849Z,8.20
2023-04-18T06:07:51.220Z,8.10
2023-04-18T06:10:19.514Z,8.00
2023-04-18T06:12:47.715Z,8.00
2023-04-18T06:15:15.915Z,8.10
2023-04-18T06:17:45.831Z,8.10
2023-04-18T06:20:14.384Z,8.10
2023-04-18T06:22:42.864Z,8.20
2023-04-18T06:25:11.368Z,8.10
2023-04-18T06:27:39.818Z,8.10
2023-04-18T06:30:09.013Z,8.10
2023-04-18T06:32:37.338Z,8.10
2023-04-18T06:35:07.908Z,8.20
2023-04-18T06:37:36.248Z,8.20
2023-04-18T06:40:04.853Z,8.20
2023-04-18T06:42:33.049Z,8.20
2023-04-18T06:45:01.303Z,8.10
2023-04-18T06:47:30.186Z,8.10
2023-04-18T06:49:58.348Z,8.00
2023-04-18T06:52:27.851Z,7.90
2023-04-18T06:54:55.988Z,7.90
2023-04-18T06:57:24.209Z,7.80
2023-04-18T06:59:52.539Z,7.80
2023-04-18T07:02:20.755Z,7.70
2023-04-18T07:04:49.316Z,7.80
2023-04-18T07:07:17.743Z,7.80
2023-04-18T07:09:47.869Z,7.90
2023-04-18T07:12:16.095Z,8.00
2023-04-18T07:14:44.200Z,7.90
2023-04-18T07:17:12.487Z,8.00
2023-04-18T07:19:41.647Z,8.10
2023-04-18T07:22:09.813Z,8.10
2023-04-18T07:24:39.236Z,8.00
2023-04-18T07:27:09.687Z,8.00
2023-04-18T07:29:37.884Z,8.10
2023-04-18T07:32:08.129Z,8.10
2023-04-18T07:34:37.516Z,8.00
2023-04-18T07:37:06.113Z,8.00
2023-04-18T07:39:36.143Z,8.00
2023-04-18T07:42:04.654Z,8.10
2023-04-18T07:44:36.804Z,7.90
2023-04-18T07:47:09.878Z,7.90
2023-04-18T07:49:38.366Z,7.90
2023-04-18T07:52:06.949Z,7.90
2023-04-18T07:54:35.220Z,7.90
2023-04-18T07:57:03.460Z,7.90
2023-04-18T07:59:33.024Z,7.90
2023-04-18T08:02:01.230Z,7.90
2023-04-18T08:04:30.626Z,7.90
2023-04-18T08:06:59.002Z,7.90
2023-04-18T08:09:27.170Z,7.90
2023-04-18T08:11:57.854Z,7.80
2023-04-18T08:14:26.385Z,7.80
2023-04-18T08:16:55.990Z,7.80
2023-04-18T08:19:24.449Z,7.90
2023-04-18T08:21:52.861Z,7.90
2023-04-18T08:24:20.971Z,7.90
2023-04-18T08:26:49.117Z,7.90
2023-04-18T08:29:17.264Z,7.80
2023-04-18T08:31:46.047Z,7.80
2023-04-18T08:34:15.553Z,7.90
2023-04-18T08:36:46.955Z,8.00
2023-04-18T08:39:15.229Z,8.00
2023-04-18T08:41:44.467Z,8.10
2023-04-18T08:44:13.384Z,8.10
2023-04-18T08:46:41.779Z,8.10
2023-04-18T08:49:11.806Z,8.20
2023-04-18T08:51:44.302Z,8.20
2023-04-18T08:54:12.776Z,8.30
2023-04-18T08:56:41.055Z,8.30
2023-04-18T08:59:09.587Z,8.30
2023-04-18T09:02:01.958Z,8.20
2023-04-18T09:04:38.472Z,8.30
2023-04-18T09:07:10.300Z,8.30
2023-04-18T09:09:46.183Z,8.40
2023-04-18T09:12:15.704Z,8.20
2023-04-18T09:14:45.609Z,8.30
2023-04-18T09:17:16.353Z,8.30
2023-04-18T09:19:50.405Z,8.30
2023-04-18T09:22:20.008Z,8.30
2023-04-18T09:24:55.411Z,8.30
2023-04-18T09:27:24.550Z,8.30
2023-04-18T09:29:55.900Z,8.40
2023-04-18T09:32:29.139Z,8.50
2023-04-18T09:35:04.041Z,8.60
2023-04-18T09:37:34.629Z,8.70
2023-04-18T09:40:16.607Z,8.70
2023-04-18T09:42:44.771Z,8.80
2023-04-18T09:45:13.647Z,8.80
2023-04-18T09:47:41.891Z,8.90
2023-04-18T09:50:11.528Z,9.00
2023-04-18T09:52:42.569Z,9.10
2023-04-18T09:55:12.589Z,9.00
2023-04-18T09:57:43.845Z,9.00
2023-04-18T10:00:20.185Z,9.00
2023-04-18T10:02:53.974Z,9.00
2023-04-18T10:05:26.691Z,9.10
2023-04-18T10:07:57.183Z,9.30
2023-04-18T10:10:25.773Z,9.40
2023-04-18T10:12:56.395Z,9.50
2023-04-18T10:15:27.006Z,9.60
2023-04-18T10:18:04.309Z,9.80
2023-04-18T10:20:35.503Z,10.00
2023-04-18T10:23:36.984Z,10.10
2023-04-18T10:26:06.071Z,10.10
2023-04-18T10:28:54.670Z,10.20
2023-04-18T10:31:24.351Z,10.30
2023-04-18T10:36:28.297Z,10.50
2023-04-18T10:39:04.192Z,10.50
2023-04-18T10:41:33.537Z,10.60
2023-04-18T10:44:22.366Z,10.70
2023-04-18T10:47:23.918Z,10.70
2023-04-18T10:49:58.012Z,10.80
2023-04-18T10:52:26.874Z,10.90
2023-04-18T10:55:05.520Z,10.90
2023-04-18T10:57:42.472Z,11.00
2023-04-18T11:00:13.738Z,11.10
2023-04-18T11:02:48.875Z,11.10
2023-04-18T11:05:21.366Z,11.00
2023-04-18T11:07:50.855Z,11.10
2023-04-18T11:10:21.583Z,11.10
2023-04-18T11:12:50.108Z,11.10
2023-04-18T11:15:21.653Z,11.00
2023-04-18T11:17:58.214Z,11.10
2023-04-18T11:20:27.081Z,11.10
2023-04-18T11:22:58.364Z,11.10
2023-04-18T11:25:30.190Z,11.10
2023-04-18T11:28:01.440Z,11.10
2023-04-18T11:30:36.934Z,11.10
2023-04-18T11:33:07.659Z,11.10
2023-04-18T11:35:39.531Z,11.20
2023-04-18T11:38:08.052Z,11.20
2023-04-18T11:40:38.173Z,11.30
2023-04-18T11:43:10.045Z,11.30
2023-04-18T11:45:38.366Z,11.30
2023-04-18T11:48:06.914Z,11.40
2023-04-18T11:50:38.338Z,11.40
2023-04-18T11:53:06.574Z,11.40
2023-04-18T11:55:34.707Z,11.50
2023-04-18T11:58:04.589Z,11.60
2023-04-18T12:00:35.409Z,11.60
2023-04-18T12:03:05.450Z,11.60
2023-04-18T12:05:36.303Z,11.70
2023-04-18T12:08:08.308Z,11.80
2023-04-18T12:10:37.033Z,11.90
2023-04-18T12:13:09.956Z,11.90
2023-04-18T12:15:40.566Z,12.10
2023-04-18T12:18:09.441Z,12.10
2023-04-18T12:20:39.291Z,12.10
2023-04-18T12:23:08.047Z,12.20
2023-04-18T12:25:36.483Z,12.20
2023-04-18T12:28:14.775Z,12.20
2023-04-18T12:30:44.427Z,12.30
2023-04-18T12:33:12.701Z,12.30
2023-04-18T12:35:41.323Z,12.30
2023-04-18T12:38:09.496Z,12.40
2023-04-18T12:40:40.811Z,12.40
2023-04-18T12:43:10.258Z,12.50
2023-04-18T12:45:38.473Z,12.50
2023-04-18T12:48:08.486Z,12.60
2023-04-18T12:50:37.054Z,12.60
2023-04-18T12:53:06.347Z,12.60
2023-04-18T12:55:34.565Z,12.60
2023-04-18T12:58:02.838Z,12.60
2023-04-18T13:00:32.734Z,12.60
2023-04-18T13:03:01.566Z,12.70
2023-04-18T13:05:33.438Z,12.70
2023-04-18T13:08:15.231Z,12.60
2023-04-18T13:10:45.475Z,12.60
2023-04-18T13:13:13.939Z,12.60
2023-04-18T13:15:42.599Z,12.60
2023-04-18T13:18:10.784Z,12.70
2023-04-18T13:20:40.705Z,12.80
2023-04-18T13:23:08.804Z,12.90
2023-04-18T13:25:37.035Z,13.00
2023-04-18T13:28:05.657Z,13.00
2023-04-18T13:30:35.795Z,13.10
2023-04-18T13:33:04.077Z,13.10
2023-04-18T13:35:32.349Z,13.20
2023-04-18T13:38:01.898Z,13.30
2023-04-18T13:40:30.122Z,13.30
2023-04-18T13:42:58.761Z,13.30
2023-04-18T13:45:27.482Z,13.30
2023-04-18T13:47:55.834Z,13.40
2023-04-18T13:50:24.510Z,13.40
2023-04-18T13:52:54.476Z,13.40
2023-04-18T13:55:24.243Z,13.50
2023-04-18T13:57:52.457Z,13.60
2023-04-18T14:00:21.688Z,13.70
2023-04-18T14:02:50.234Z,13.80
2023-04-18T14:05:18.544Z,14.00
2023-04-18T14:07:48.701Z,14.10
2023-04-18T14:10:16.967Z,14.20
2023-04-18T14:12:46.882Z,14.20
2023-04-18T14:15:14.969Z,14.20
2023-04-18T14:17:45.508Z,14.30
2023-04-18T14:20:15.703Z,14.30
2023-04-18T14:22:43.824Z,14.40
2023-04-18T14:25:12.156Z,14.50
2023-04-18T14:27:40.470Z,14.50
2023-04-18T14:30:11.796Z,14.60
2023-04-18T14:32:39.966Z,14.60
2023-04-18T14:35:09.233Z,14.60
2023-04-18T14:37:37.395Z,14.60
2023-04-18T14:40:08.243Z,14.80
2023-04-18T14:42:36.363Z,14.80
2023-04-18T14:45:05.163Z,14.80
2023-04-18T14:47:34.932Z,14.60
2023-04-18T14:50:03.104Z,14.50
2023-04-18T14:52:31.179Z,14.30
2023-04-18T14:54:59.611Z,14.30
2023-04-18T14:57:30.237Z,14.30
2023-04-18T14:59:58.404Z,14.30
2023-04-18T15:02:26.774Z,14.40
2023-04-18T15:04:56.679Z,14.40
2023-04-18T15:07:24.997Z,14.40
2023-04-18T15:09:53.262Z,14.40
2023-04-18T15:12:21.348Z,14.50
2023-04-18T15:14:49.756Z,14.60
2023-04-18T15:17:17.831Z,14.70
2023-04-18T15:19:45.936Z,14.70
2023-04-18T15:22:15.552Z,14.80
2023-04-18T15:24:43.668Z,14.90
2023-04-18T15:27:12.252Z,15.00
2023-04-18T15:29:40.948Z,15.10
2023-04-18T15:32:09.811Z,15.20
2023-04-18T15:34:37.967Z,15.40
2023-04-18T15:37:06.454Z,15.70
2023-04-18T15:39:36.143Z,15.90
2023-04-18T15:42:04.354Z,16.00
2023-04-18T15:44:32.433Z,16.10
2023-04-18T15:47:01.854Z,16.10
2023-04-18T15:49:30.020Z,15.90
2023-04-18T15:51:58.169Z,15.90
2023-04-18T15:54:26.346Z,15.90
2023-04-18T15:56:56.204Z,15.90
2023-04-18T15:59:24.558Z,15.90
2023-04-18T16:01:52.933Z,15.80
2023-04-18T16:04:21.320Z,15.90
2023-04-18T16:06:49.461Z,15.90
2023-04-18T16:09:17.586Z,15.90
2023-04-18T16:11:45.834Z,16.00
2023-04-18T16:14:15.451Z,16.10
2023-04-18T16:16:43.602Z,16.00
2023-04-18T16:19:12.052Z,15.90
2023-04-18T16:21:40.219Z,15.90
2023-04-18T16:24:08.723Z,15.80
2023-04-18T16:26:36.785Z,15.90
2023-04-18T16:29:04.864Z,15.90
2023-04-18T16:31:34.605Z,15.90
2023-04-18T16:34:03.156Z,16.00
2023-04-18T16:36:34.191Z,16.10
2023-04-18T16:39:02.323Z,16.00
2023-04-18T16:41:30.788Z,16.10
2023-04-18T16:43:58.856Z,16.10
2023-04-18T16:46:31.306Z,16.00
2023-04-18T16:49:01.489Z,16.10
2023-04-18T16:51:29.912Z,16.00
2023-04-18T16:53:58.052Z,15.90
2023-04-18T16:56:26.293Z,16.00
2023-04-18T16:58:54.394Z,15.90
2023-04-18T17:01:22.486Z,15.90
2023-04-18T17:03:50.867Z,16.00
2023-04-18T17:06:22.652Z,15.90
2023-04-18T17:08:53.392Z,16.00
2023-04-18T17:11:21.752Z,15.80
2023-04-18T17:13:51.205Z,15.80
2023-04-18T17:16:19.484Z,15.80
2023-04-18T17:18:47.639Z,15.70
2023-04-18T17:21:15.728Z,15.70
2023-04-18T17:23:45.677Z,15.60
2023-04-18T17:26:13.799Z,15.40
2023-04-18T17:28:41.866Z,15.40
2023-04-18T17:31:10.021Z,15.30
2023-04-18T17:33:38.412Z,15.20
2023-04-18T17:36:07.163Z,15.30
2023-04-18T17:38:35.640Z,15.40
2023-04-18T17:41:06.233Z,15.30
2023-04-18T17:43:34.318Z,15.40
2023-04-18T17:46:04.019Z,15.20
2023-04-18T17:48:32.218Z,15.20
2023-04-18T17:51:00.422Z,15.10
2023-04-18T17:53:30.215Z,15.20
2023-04-18T17:56:03.504Z,15.10
2023-04-18T17:58:33.074Z,15.00
2023-04-18T18:01:01.214Z,15.00
2023-04-18T18:03:29.645Z,15.00
2023-04-18T18:05:58.413Z,14.90
2023-04-18T18:08:26.669Z,14.80
2023-04-18T18:10:54.782Z,14.80
2023-04-18T18:13:22.917Z,14.80
2023-04-18T18:15:52.398Z,14.60
2023-04-18T18:18:29.723Z,14.60
2023-04-18T18:20:58.207Z,14.60
2023-04-18T18:23:26.687Z,14.60
2023-04-18T18:25:54.858Z,14.60
2023-04-18T18:28:23.027Z,14.70
2023-04-18T18:30:52.593Z,14.70
2023-04-18T18:33:20.768Z,14.70
2023-04-18T18:35:49.164Z,14.60
2023-04-18T18:38:17.749Z,14.60
2023-04-18T18:40:46.111Z,14.40
2023-04-18T18:43:14.410Z,14.00
2023-04-18T18:45:42.568Z,14.10
2023-04-18T18:48:12.166Z,14.10
2023-04-18T18:50:41.781Z,14.10
2023-04-18T18:53:10.109Z,14.10
2023-04-18T18:55:38.219Z,14.20
2023-04-18T18:58:07.929Z,14.20
2023-04-18T19:00:36.091Z,14.20
2023-04-18T19:03:04.707Z,14.20
2023-04-18T19:05:34.699Z,14.20
2023-04-18T19:08:04.845Z,14.10
2023-04-18T19:10:33.057Z,13.90
2023-04-18T19:13:22.628Z,13.90
2023-04-18T19:16:13.993Z,13.80
2023-04-18T19:19:02.554Z,13.80
2023-04-18T19:21:52.441Z,13.40
2023-04-18T19:24:20.705Z,13.40
2023-04-18T19:26:48.847Z,13.50
2023-04-18T19:29:18.085Z,13.60
2023-04-18T19:31:46.516Z,13.40
2023-04-18T19:34:14.826Z,13.50
2023-04-18T19:36:43.176Z,13.50
2023-04-18T19:39:12.893Z,13.40
2023-04-18T19:41:41.525Z,13.40
2023-04-18T19:44:09.700Z,13.10
2023-04-18T19:46:37.922Z,13.00
2023-04-18T19:49:06.040Z,13.00
2023-04-18T19:51:34.311Z,12.90
2023-04-18T19:54:02.522Z,12.90
2023-04-18T19:56:31.957Z,12.90
2023-04-18T19:59:00.138Z,12.90
2023-04-18T20:01:28.244Z,12.70
2023-04-18T20:03:58.687Z,12.60
2023-04-18T20:06:28.016Z,12.40
2023-04-18T20:08:56.520Z,12.50
2023-04-18T20:11:25.583Z,12.60
2023-04-18T20:13:55.705Z,12.70
2023-04-18T20:16:24.482Z,12.70
2023-04-18T20:18:54.844Z,12.70
2023-04-18T20:21:23.271Z,12.80
2023-04-18T20:23:51.386Z,12.60
2023-04-18T20:26:19.762Z,12.20
2023-04-18T20:28:48.517Z,12.40
2023-04-18T20:31:19.479Z,12.50
2023-04-18T20:33:47.742Z,12.60
2023-04-18T20:36:17.552Z,12.60
2023-04-18T20:38:46.066Z,12.50
2023-04-18T20:41:15.074Z,12.40
2023-04-18T20:43:43.562Z,12.00
2023-04-18T20:46:14.199Z,11.90
2023-04-18T20:48:44.408Z,12.00
2023-04-18T20:51:12.601Z,12.10
2023-04-18T20:53:40.866Z,12.10
2023-04-18T20:56:08.996Z,12.20
2023-04-18T20:58:37.692Z,12.30
2023-04-18T21:01:07.135Z,12.30
2023-04-18T21:03:35.769Z,12.20
2023-04-18T21:06:05.674Z,12.20
2023-04-18T21:08:35.161Z,12.10
2023-04-18T21:11:03.496Z,12.10
2023-04-18T21:13:32.731Z,12.10
2023-04-18T21:16:03.430Z,12.10
2023-04-18T21:18:31.936Z,12.10
2023-04-18T21:20:59.963Z,12.00
2023-04-18T21:23:30.044Z,11.90
2023-04-18T21:25:58.150Z,11.90
2023-04-18T21:28:26.356Z,11.80
2023-04-18T21:30:54.502Z,11.70
2023-04-18T21:33:23.926Z,11.70
2023-04-18T21:35:52.112Z,11.70
2023-04-18T21:38:25.478Z,11.60
2023-04-18T21:40:55.060Z,11.70
2023-04-18T21:43:23.121Z,11.60
2023-04-18T21:45:51.348Z,11.60
2023-04-18T21:48:19.504Z,11.50
2023-04-18T21:50:47.624Z,11.40
2023-04-18T21:53:15.690Z,11.30
2023-04-18T21:55:43.808Z,11.30
2023-04-18T21:58:13.488Z,11.20
2023-04-18T22:00:41.711Z,11.20
2023-04-18T22:03:10.101Z,11.10
2023-04-18T22:05:39.065Z,11.00
2023-04-18T22:08:07.328Z,11.00
2023-04-18T22:10:36.247Z,11.00
2023-04-18T22:13:05.425Z,11.00
2023-04-18T22:15:39.222Z,10.90
2023-04-18T22:18:08.494Z,10.90
2023-04-18T22:20:37.332Z,10.80
2023-04-18T22:23:07.062Z,10.80
2023-04-18T22:25:35.237Z,10.80
2023-04-18T22:28:03.961Z,10.80
2023-04-18T22:30:34.514Z,10.80
2023-04-18T22:33:03.491Z,10.80
2023-04-18T22:35:32.211Z,10.80
2023-04-18T22:38:00.611Z,10.80
2023-04-18T22:40:29.709Z,10.80
2023-04-18T22:42:58.888Z,10.80
2023-04-18T22:45:27.642Z,10.80
2023-04-18T22:47:57.944Z,10.70
2023-04-18T22:50:27.382Z,10.70
2023-04-18T22:52:55.961Z,10.60
2023-04-18T22:55:24.586Z,10.70
2023-04-18T22:57:53.111Z,10.70
2023-04-18T23:00:21.756Z,10.80
2023-04-18T23:02:50.784Z,10.80
2023-04-18T23:05:20.578Z,10.90
2023-04-18T23:07:48.751Z,10.80
2023-04-18T23:10:16.912Z,10.70
2023-04-18T23:12:45.072Z,10.80
2023-04-18T23:15:13.783Z,10.90
2023-04-18T23:17:42.203Z,11.00
2023-04-18T23:20:12.483Z,11.00
2023-04-18T23:22:42.340Z,11.10
2023-04-18T23:25:10.837Z,11.10
2023-04-18T23:27:39.234Z,11.10
2023-04-18T23:30:09.191Z,11.10
2023-04-18T23:32:37.454Z,11.10
2023-04-18T23:35:06.586Z,11.10
2023-04-18T23:37:34.954Z,11.10
2023-04-18T23:40:06.694Z,11.00
2023-04-18T23:42:35.828Z,11.10
2023-04-18T23:45:05.695Z,11.10
2023-04-18T23:47:33.895Z,11.10
2023-04-18T23:50:02.446Z,11.10
2023-04-18T23:52:30.689Z,11.10
2023-04-18T23:55:01.320Z,11.10
2023-04-18T23:57:30.900Z,11.10
2023-04-18T23:59:59.112Z,11.00
